• Join FlightAware (Why Join?)
  • Login
  • US Flag 
12:55PM EDT


 

Airport Tracker/Info


-or-


 

Live Flight TrackerFlight Track Log ✈ EJA703 ✈ 20-Jun-2013 ✈ KLAS - KSMO

Flight Track Log - Related Links

Times and Time Zones

All times are in EDT time to prevent confusion due to time zone crossing. See the EJA703 flight status page for this flight to view local times or setup timezone preferences in your user account.

Time Position Orientation Groundspeed Altitude Reporting Facility
EDT Latitude Longitude Course Direction KTS MPH feet Rate Location/Type
07:47PM 36.0725 -115.1719 219° Southwest 161 185 3,100  Level Los Angeles Center
07:48PM 36.0381 -115.1914 205° Southwest 197 227 5,300 2,460 Climbing Los Angeles Center
07:49PM 36.0022 -115.2083 201° Southwest 217 250 6,500 3,120 Climbing Los Angeles Center
07:50PM 35.9253 -115.2281 192° South 269 310 10,700 3,240 Climbing Los Angeles Center
07:51PM 35.8406 -115.2494 192° South 288 331 13,200 2,760 Climbing Los Angeles Center
07:52PM 35.7406 -115.2772 193° South 336 387 16,500 3,360 Climbing Los Angeles Center
07:53PM 35.6603 -115.2897 219° Southwest  Level FlightAware Approximate
07:53PM 35.6367 -115.3508 210° Southwest 363 418 20,200  Level Los Angeles Center
07:54PM 35.5658 -115.4450 227° Southwest 371 427 22,000 840 Climbing Los Angeles Center
07:55PM 35.4919 -115.5456 228° Southwest 384 442 22,000  Level Los Angeles Center
07:56PM 35.4186 -115.6431 227° Southwest 391 450 22,000  Level Los Angeles Center
07:57PM 35.3447 -115.7408 227° Southwest 391 450 22,000  Level Los Angeles Center
07:58PM 35.2714 -115.8314 225° Southwest 384 442 22,000  Level Los Angeles Center
07:59PM 35.2072 -115.9231 229° Southwest 370 426 22,000  Level Los Angeles Center
08:00PM 35.1256 -116.0294 227° Southwest 361 415 22,000  Level Los Angeles Center
08:01PM 35.0553 -116.1192 226° Southwest 361 415 22,000  Level Los Angeles Center
08:02PM 34.9872 -116.2086 227° Southwest 361 415 22,000  Level Los Angeles Center
08:03PM 34.9614 -116.3250 255° West 359 413 22,000  Level Los Angeles Center
08:04PM 34.9406 -116.4433 258° West 359 413 22,000  Level Los Angeles Center
08:05PM 34.9203 -116.5592 258° West 356 410 22,000  Level Los Angeles Center
08:06PM 34.8978 -116.6769 257° West 355 409 22,000  Level Los Angeles Center
08:07PM 34.8719 -116.8181 257° West 356 410 22,000 -60 Level Los Angeles Center
08:08PM 34.8492 -116.9358 257° West 357 411 21,900 -660 Descending Los Angeles Center
08:09PM 34.8281 -117.0522 258° West 353 406 20,700 -1,140 Descending Los Angeles Center
08:10PM 34.8044 -117.1681 256° West 353 406 19,600 -1,200 Descending Los Angeles Center
08:11PM 34.7811 -117.2906 257° West 364 419 18,300 -1,260 Descending Los Angeles Center
08:12PM 34.7581 -117.4125 257° West 369 425 17,000 -1,380 Descending Los Angeles Center
08:13PM 34.7297 -117.5536 256° West 359 413 15,500 -1,380 Descending Los Angeles Center
08:14PM 34.6947 -117.6669 249° West 370 426 14,200 -1,260 Descending Los Angeles Center
08:16PM 34.6617 -117.7786 250° West 356 410 13,000 -1,140 Descending Los Angeles Center
08:17PM 34.6281 -117.8894 250° West 351 404 11,900 -1,080 Descending Los Angeles Center
08:18PM 34.5972 -117.9858 249° West 311 358 10,800 -1,020 Descending Los Angeles Center
08:19PM 34.5692 -118.0767 249° West 291 335 9,900 -1,020 Descending Los Angeles Center
08:20PM 34.5386 -118.1758 250° West 287 330 8,800 -960 Descending Los Angeles Center
08:21PM 34.5086 -118.2628 247° West 281 323 8,000 -420 Descending Los Angeles Center
08:22PM 34.4361 -118.2928 199° South 287 330 8,000 -480 Level Los Angeles Center
08:23PM 34.3428 -118.3164 192° South 284 327 7,000 -480 Descending Los Angeles Center
08:24PM 34.2664 -118.3311 189° South 278 320 7,000 -540 Level Los Angeles Center
08:25PM 34.1908 -118.3136 169° South 277 319 6,000 -1,260 Descending Los Angeles Center
08:26PM 34.1303 -118.3125 179° South 232 267 4,400 -1,680 Descending Los Angeles Center
08:27PM 34.0894 -118.3569 222° Southwest 205 236 2,600 -1,500 Descending Los Angeles Center
08:28PM 34.0550 -118.4047 229° Southwest 172 198 1,400 -1,020 Descending Los Angeles Center
08:29PM 34.0292 -118.4375 226° Southwest 153 176 500 -660 Descending Los Angeles Center
08:30PM 34.0139 -118.4553 224° Southwest 98 113 100 -420 Descending Los Angeles Center
08:32PM 34.0158 -118.4513 North  Level Estimated
08:39PM 34.0158 -118.4513 North  Level Estimated